Mito, Japan
Current Conditions -  °F | °C
As of 4:00 AM on Friday 24 Oct 2014 (Local Time) from RJAH Reporting Station
Broken Clouds Broken Clouds  
Wind Chill: 46°   Ceiling: 4000
Heat Index: 48°   Visibility: 6mi
Dew Point: 45°   Wind: 5mph
Humidity: 87%   Direction: 10°N
Pressure: 30.09"   Gusts: NA
Location:  36.38°N, 140.47°E
Report Text: RJAH 231900Z 01004KT 9999 FEW025 BKN040 09/07 Q1019
Loading
Personal Weather Stations






























Interactive Weather Map
Tropical Storm Tracking
New forecast layout! Learn more

10-Day Weather Forecast

Advertisements
Track Severe Weather on mobile